Time;durP1;ratioP1;P1;durP2;ratioP2;P2;SDS_P1;SDS_P2;PMS_P1;PMS_P2;Temp;Humidity;BMP_temperature;BMP_pressure;BME280_temperature;BME280_humidity;BME280_pressure;Samples;Min_cycle;Max_cycle;Signal;HPM_P1;HPM_P2
2022/03/10 00:01:17;;;;;;;32.77;22.80;;;;;;;7.40;42.84;102185.44;5273640;28;20028;-74
2022/03/10 00:03:49;;;;;;;28.03;20.17;;;;;;;7.39;43.32;102187.19;5277667;28;20032;-75
2022/03/10 00:06:20;;;;;;;32.17;22.03;;;;;;;7.41;43.30;102188.00;5275770;28;20033;-75
2022/03/10 00:08:51;;;;;;;35.50;23.30;;;;;;;7.32;43.51;102196.03;5273173;28;20020;-74
2022/03/10 00:11:22;;;;;;;30.50;21.33;;;;;;;7.43;42.81;102193.19;5273968;28;20055;-75
2022/03/10 00:13:54;;;;;;;31.73;21.07;;;;;;;7.39;43.37;102197.63;5273879;28;20021;-74
2022/03/10 00:16:26;;;;;;;37.40;22.53;;;;;;;7.14;44.18;102198.19;5274093;28;20117;-74
2022/03/10 00:18:57;;;;;;;36.37;22.70;;;;;;;7.37;43.92;102204.59;5273279;28;20032;-73
2022/03/10 00:21:28;;;;;;;33.57;22.40;;;;;;;7.24;44.58;102199.69;5274106;28;20029;-74
2022/03/10 00:24:00;;;;;;;33.07;21.47;;;;;;;6.94;45.13;102204.72;5272541;28;20039;-74
2022/03/10 00:26:31;;;;;;;30.17;22.97;;;;;;;6.77;45.63;102195.53;5273916;28;20028;-74
2022/03/10 00:29:03;;;;;;;37.07;23.10;;;;;;;6.93;45.28;102205.59;5273587;28;20025;-75
2022/03/10 00:31:35;;;;;;;33.77;22.10;;;;;;;6.92;45.52;102192.63;5273901;28;20024;-74
2022/03/10 00:34:07;;;;;;;34.93;22.93;;;;;;;6.61;46.04;102199.38;5273380;28;20090;-73
2022/03/10 00:36:38;;;;;;;34.30;22.40;;;;;;;6.77;45.71;102195.53;5272571;28;20123;-72
2022/03/10 00:39:09;;;;;;;42.40;23.33;;;;;;;6.43;46.23;102191.06;5272745;28;20107;-73
2022/03/10 00:41:40;;;;;;;39.20;22.57;;;;;;;6.55;46.60;102179.53;5272070;28;20036;-73
2022/03/10 00:44:12;;;;;;;31.73;21.70;;;;;;;6.71;45.65;102195.69;5271765;28;20047;-73
2022/03/10 00:46:43;;;;;;;30.20;21.47;;;;;;;6.66;45.42;102192.31;5273501;28;20075;-74
2022/03/10 00:49:15;;;;;;;36.20;22.27;;;;;;;6.44;46.13;102197.13;5273277;28;20028;-73
2022/03/10 00:51:50;;;;;;;38.40;22.90;;;;;;;6.38;46.85;102205.91;5277891;28;20024;-73
2022/03/10 00:54:21;;;;;;;34.70;23.93;;;;;;;6.29;46.81;102197.41;5293651;28;20080;-73
2022/03/10 00:56:53;;;;;;;33.63;22.27;;;;;;;6.53;46.64;102197.78;5293789;28;20437;-74
2022/03/10 00:59:24;;;;;;;34.40;23.43;;;;;;;6.75;45.92;102204.28;5298204;28;20488;-74
2022/03/10 01:01:55;;;;;;;31.23;21.50;;;;;;;6.56;46.42;102207.28;5294310;28;20024;-74
2022/03/10 01:04:26;;;;;;;37.17;24.33;;;;;;;6.43;46.94;102198.84;5294004;28;20020;-74
2022/03/10 01:06:58;;;;;;;37.47;24.07;;;;;;;6.35;47.26;102205.97;5293929;28;20340;-73
2022/03/10 01:09:29;;;;;;;34.37;22.00;;;;;;;6.17;47.76;102189.84;5291063;28;20016;-75
2022/03/10 01:12:00;;;;;;;34.70;23.37;;;;;;;6.16;47.49;102201.13;5294459;28;20055;-74
2022/03/10 01:14:32;;;;;;;41.67;25.77;;;;;;;5.99;48.80;102211.81;5293257;28;20115;-74
2022/03/10 01:17:04;;;;;;;35.57;23.60;;;;;;;5.90;49.12;102210.25;5293635;28;20024;-74
2022/03/10 01:19:35;;;;;;;38.60;24.17;;;;;;;5.77;49.73;102202.66;5293680;28;20478;-74
2022/03/10 01:22:07;;;;;;;33.87;22.67;;;;;;;5.79;49.55;102200.91;5293523;28;20020;-73
2022/03/10 01:24:41;;;;;;;36.23;23.37;;;;;;;5.81;49.54;102209.50;5292783;28;20019;-74
2022/03/10 01:27:12;;;;;;;38.90;24.40;;;;;;;5.88;49.76;102199.00;5293442;28;20073;-74
2022/03/10 01:29:43;;;;;;;37.93;23.93;;;;;;;6.10;49.00;102206.44;5293126;28;20503;-75
2022/03/10 01:32:15;;;;;;;33.33;23.03;;;;;;;5.94;49.72;102206.69;5294726;28;20024;-74
2022/03/10 01:34:46;;;;;;;38.20;24.10;;;;;;;5.96;49.24;102196.25;5294836;28;20521;-75
2022/03/10 01:37:18;;;;;;;33.83;23.07;;;;;;;6.05;49.14;102202.19;5293033;28;20457;-74
2022/03/10 01:39:49;;;;;;;33.83;23.50;;;;;;;5.95;49.33;102205.81;5292318;28;20124;-74
2022/03/10 01:42:22;;;;;;;37.40;25.37;;;;;;;5.85;49.66;102206.88;5293010;28;20506;-74
2022/03/10 01:44:54;;;;;;;34.50;23.57;;;;;;;5.85;50.12;102199.06;5293472;28;20020;-76
2022/03/10 01:47:26;;;;;;;36.63;23.30;;;;;;;6.08;49.23;102200.41;5292517;28;20032;-76
2022/03/10 01:49:57;;;;;;;36.03;22.83;;;;;;;5.84;49.77;102197.34;5293019;28;20766;-72
2022/03/10 01:52:30;;;;;;;34.57;22.73;;;;;;;5.76;50.30;102189.69;5292091;28;20024;-74
2022/03/10 01:55:02;;;;;;;36.70;22.73;;;;;;;5.72;50.54;102188.88;5293024;28;20497;-74
2022/03/10 01:57:34;;;;;;;37.33;23.80;;;;;;;5.67;50.55;102198.50;5292646;28;20077;-75
2022/03/10 02:00:06;;;;;;;32.93;22.53;;;;;;;5.63;50.64;102194.25;5292747;28;20466;-74
2022/03/10 02:02:37;;;;;;;33.23;22.93;;;;;;;5.55;50.79;102186.59;5293123;28;20463;-74
2022/03/10 02:05:09;;;;;;;41.30;23.50;;;;;;;5.54;51.02;102190.06;5292331;28;20022;-74
2022/03/10 02:10:32;;;;;;;39.80;23.83;;;;;;;5.38;51.34;102194.63;5293117;28;20044;-74
2022/03/10 02:13:03;;;;;;;36.83;23.93;;;;;;;5.33;51.56;102177.41;5291682;28;20024;-74
2022/03/10 02:18:25;;;;;;;34.40;22.43;;;;;;;5.37;51.56;102192.94;5292158;28;20032;-74
2022/03/10 02:20:56;;;;;;;34.77;23.77;;;;;;;5.33;52.41;102173.94;5291260;28;20028;-74
2022/03/10 02:23:27;;;;;;;34.73;23.03;;;;;;;5.50;51.23;102168.44;5291157;28;20047;-73
2022/03/10 02:25:59;;;;;;;36.03;22.83;;;;;;;5.46;51.33;102177.19;5292659;28;20031;-74
2022/03/10 02:28:32;;;;;;;36.03;24.63;;;;;;;5.45;51.86;102184.13;5292115;28;20035;-74
2022/03/10 02:31:04;;;;;;;32.93;23.50;;;;;;;5.31;52.39;102184.34;5292577;28;20028;-74
2022/03/10 02:33:35;;;;;;;39.87;23.70;;;;;;;5.57;51.08;102179.59;5290981;28;20024;-74
2022/03/10 02:36:06;;;;;;;37.97;23.60;;;;;;;5.56;51.39;102183.97;5292256;28;20024;-74
2022/03/10 02:38:38;;;;;;;37.77;24.63;;;;;;;5.42;51.44;102186.78;5291762;28;20047;-74
2022/03/10 02:41:09;;;;;;;38.37;24.13;;;;;;;5.30;52.24;102177.44;5291821;28;20040;-74
2022/03/10 02:43:40;;;;;;;34.13;21.83;;;;;;;5.37;51.64;102192.94;5292625;28;20028;-74
2022/03/10 02:46:11;;;;;;;38.03;24.87;;;;;;;5.18;52.47;102188.03;5273448;28;20036;-74
2022/03/10 02:48:43;;;;;;;34.53;23.37;;;;;;;5.09;52.61;102178.63;5292545;28;20067;-74
2022/03/10 02:51:14;;;;;;;38.50;24.63;;;;;;;5.19;52.50;102182.81;5291845;28;20115;-75
2022/03/10 02:53:45;;;;;;;37.20;23.80;;;;;;;5.11;52.83;102181.22;5291859;28;20043;-73
2022/03/10 02:56:16;;;;;;;36.37;23.37;;;;;;;5.16;52.80;102176.81;5291366;28;20338;-74
2022/03/10 02:58:48;;;;;;;35.60;24.87;;;;;;;5.06;53.31;102189.91;5292191;28;20028;-74
2022/03/10 03:01:19;;;;;;;35.83;24.00;;;;;;;4.92;54.00;102181.47;5291837;28;20029;-74
2022/03/10 03:03:50;;;;;;;33.77;23.33;;;;;;;4.90;53.49;102183.25;5291829;28;20030;-74
2022/03/10 03:06:22;;;;;;;36.70;23.47;;;;;;;4.92;53.89;102186.69;5292298;28;20039;-74
2022/03/10 03:08:54;;;;;;;44.23;25.87;;;;;;;4.86;53.94;102186.75;5291317;28;20082;-74
2022/03/10 03:11:25;;;;;;;37.33;25.33;;;;;;;4.84;53.76;102174.66;5291933;28;20453;-74
2022/03/10 03:13:56;;;;;;;37.57;23.83;;;;;;;4.84;53.99;102179.84;5291754;28;20051;-74
2022/03/10 03:16:28;;;;;;;36.97;23.67;;;;;;;4.71;54.66;102188.69;5291406;28;20475;-75
2022/03/10 03:18:59;;;;;;;39.53;25.00;;;;;;;4.72;54.58;102191.25;5291145;28;20024;-74
2022/03/10 03:21:31;;;;;;;34.73;24.53;;;;;;;4.72;54.49;102188.66;5292104;28;20587;-74
2022/03/10 03:24:03;;;;;;;39.73;25.50;;;;;;;4.69;54.66;102190.44;5291636;28;20059;-74
2022/03/10 03:26:34;;;;;;;33.77;23.20;;;;;;;4.78;54.69;102195.50;5296087;28;20122;-74
2022/03/10 03:29:06;;;;;;;36.17;25.60;;;;;;;4.74;54.43;102196.44;5295791;28;20026;-74
2022/03/10 03:31:37;;;;;;;37.70;24.67;;;;;;;4.76;54.69;102202.47;5295493;28;20111;-74
2022/03/10 03:34:11;;;;;;;36.47;24.20;;;;;;;4.69;54.67;102203.41;5294191;28;20051;-74
2022/03/10 03:36:44;;;;;;;41.70;23.15;;;;;;;4.75;54.50;102200.72;5295612;28;20395;-74
2022/03/10 03:39:16;;;;;;;38.47;24.03;;;;;;;4.75;54.38;102200.72;5293420;28;20119;-74
2022/03/10 03:41:47;;;;;;;38.67;24.20;;;;;;;4.71;54.85;102207.69;5295128;28;20681;-74
2022/03/10 03:44:19;;;;;;;38.00;25.33;;;;;;;4.64;54.74;102197.44;5295964;28;20016;-74
2022/03/10 03:46:50;;;;;;;39.43;24.00;;;;;;;4.58;55.22;102194.03;5295195;28;20028;-73
2022/03/10 03:49:22;;;;;;;44.20;25.73;;;;;;;4.52;55.22;102203.63;5295509;28;20368;-74
2022/03/10 03:51:53;;;;;;;41.73;25.97;;;;;;;4.54;55.09;102197.53;5295624;28;20054;-74
2022/03/10 03:54:24;;;;;;;35.47;23.67;;;;;;;4.57;55.03;102201.84;5294072;28;20026;-74
2022/03/10 03:56:56;;;;;;;37.03;24.47;;;;;;;4.55;55.45;102214.84;5293869;28;20483;-74
2022/03/10 03:59:27;;;;;;;35.73;24.30;;;;;;;4.60;55.44;102222.56;5294938;28;20024;-73
2022/03/10 04:01:58;;;;;;;43.60;24.73;;;;;;;4.61;54.92;102213.88;5295195;28;20085;-73
2022/03/10 04:04:30;;;;;;;34.97;23.47;;;;;;;4.62;55.25;102228.59;5294846;28;20020;-74
2022/03/10 04:07:01;;;;;;;36.47;24.77;;;;;;;4.61;55.05;102221.66;5294827;28;20024;-74
2022/03/10 04:09:33;;;;;;;35.83;24.03;;;;;;;4.65;54.68;102223.34;5293733;28;20540;-73
2022/03/10 04:12:04;;;;;;;33.47;23.50;;;;;;;4.67;54.69;102225.94;5294787;28;20024;-74
2022/03/10 04:14:36;;;;;;;34.07;22.47;;;;;;;4.74;54.17;102227.56;5294940;28;20101;-74
2022/03/10 04:17:07;;;;;;;34.67;24.93;;;;;;;4.75;54.17;102226.69;5294406;28;20103;-74
2022/03/10 04:19:38;;;;;;;34.90;23.23;;;;;;;4.69;53.98;102227.66;5294676;28;20060;-74
2022/03/10 04:22:09;;;;;;;38.97;23.97;;;;;;;4.75;54.34;102226.69;5294047;28;20032;-74
2022/03/10 04:24:41;;;;;;;35.23;23.43;;;;;;;4.84;53.81;102230.91;5295114;28;20035;-73
2022/03/10 04:27:12;;;;;;;36.23;24.10;;;;;;;4.59;54.28;102221.69;5294045;28;20019;-74
2022/03/10 04:29:44;;;;;;;37.50;24.47;;;;;;;4.51;54.29;102233.91;5294709;28;20630;-74
2022/03/10 04:32:15;;;;;;;34.70;23.40;;;;;;;4.44;54.63;102229.66;5293873;28;20062;-74
2022/03/10 04:34:47;;;;;;;37.93;23.83;;;;;;;4.38;55.07;102237.53;5294414;28;20031;-74
2022/03/10 04:37:18;;;;;;;38.13;25.47;;;;;;;4.37;55.04;102215.91;5293080;28;20028;-74
2022/03/10 04:39:49;;;;;;;37.47;24.07;;;;;;;4.53;54.29;102229.56;5294723;28;20032;-73
2022/03/10 04:42:20;;;;;;;35.63;23.57;;;;;;;4.47;54.93;102227.88;5293558;28;20031;-73
2022/03/10 04:44:52;;;;;;;35.73;22.83;;;;;;;4.39;54.49;102226.25;5294712;28;20024;-73
2022/03/10 04:47:23;;;;;;;41.87;24.90;;;;;;;4.38;54.70;102227.16;5293500;28;20036;-74
2022/03/10 04:49:56;;;;;;;36.00;23.33;;;;;;;4.37;54.74;102226.28;5294925;28;20032;-73
2022/03/10 04:52:28;;;;;;;40.37;25.10;;;;;;;4.23;55.41;102229.03;5283014;28;20460;-74
2022/03/10 04:55:00;;;;;;;36.57;23.43;;;;;;;4.22;55.20;102229.91;5272255;28;20032;-73
2022/03/10 04:57:31;;;;;;;33.40;21.60;;;;;;;4.37;54.38;102218.50;5273274;28;20277;-73
2022/03/10 05:00:08;;;;;;;34.97;22.60;;;;;;;4.30;55.20;102225.50;5272207;28;20327;-74
2022/03/10 05:02:40;;;;;;;37.93;23.57;;;;;;;4.23;55.18;102222.13;5271489;28;20028;-73
2022/03/10 05:05:14;;;;;;;42.03;24.53;;;;;;;4.20;55.15;102223.88;5271228;28;21010;-73
2022/03/10 05:07:46;;;;;;;39.65;24.30;;;;;;;4.28;54.46;102221.19;5271423;28;20285;-75
2022/03/10 05:10:18;;;;;;;37.27;23.13;;;;;;;4.15;55.52;102221.34;5272127;28;20135;-74
2022/03/10 05:12:52;;;;;;;40.70;24.03;;;;;;;4.21;55.24;102241.13;5273109;28;20122;-74
2022/03/10 05:15:26;;;;;;;;;;;;;;;4.58;53.04;102230.38;5272357;28;20384;-74
2022/03/10 05:18:00;;;;;;;33.73;22.40;;;;;;;4.32;54.52;102233.25;5272065;28;19912;-74
2022/03/10 05:20:31;;;;;;;34.87;23.47;;;;;;;4.24;54.77;102229.00;5270818;28;20347;-74
2022/03/10 05:23:04;;;;;;;33.00;23.03;;;;;;;4.18;55.23;102238.59;5271788;28;20029;-74
2022/03/10 05:25:37;;;;;;;36.23;23.57;;;;;;;4.30;54.59;102238.47;5271930;28;20141;-74
2022/03/10 05:28:13;;;;;;;34.53;22.83;;;;;;;4.26;54.81;102236.75;5272077;28;20089;-74
2022/03/10 05:30:45;;;;;;;43.07;24.40;;;;;;;4.06;54.90;102230.06;5272126;28;20051;-74
2022/03/10 05:33:16;;;;;;;35.20;22.10;;;;;;;4.06;54.53;102231.78;5272345;28;20282;-74
2022/03/10 05:35:47;;;;;;;33.70;22.07;;;;;;;4.21;54.24;102230.75;5254025;28;20020;-74
2022/03/10 05:38:19;;;;;;;37.20;23.27;;;;;;;4.05;54.49;102225.75;5271218;28;20479;-74
2022/03/10 05:40:50;;;;;;;37.43;22.87;;;;;;;4.06;54.72;102237.84;5271986;28;20040;-74
2022/03/10 05:43:21;;;;;;;33.77;22.10;;;;;;;4.04;54.69;102237.00;5271806;28;20443;-74
2022/03/10 05:45:52;;;;;;;42.87;23.43;;;;;;;3.99;55.25;102231.00;5275798;28;20032;-74
2022/03/10 05:48:24;;;;;;;34.90;24.03;;;;;;;3.90;55.13;102234.53;5274848;28;20033;-74
2022/03/10 05:50:56;;;;;;;41.13;22.43;;;;;;;3.75;55.56;102228.59;5272312;28;20054;-74
2022/03/10 05:53:28;;;;;;;37.00;23.03;;;;;;;3.76;55.58;102229.47;5269117;28;20029;-72
2022/03/10 05:55:59;;;;;;;38.90;23.57;;;;;;;3.68;55.84;102226.97;5271999;28;20084;-73
2022/03/10 05:58:30;;;;;;;40.07;25.00;;;;;;;3.84;55.19;102238.03;5271302;28;20369;-74
2022/03/10 06:01:01;;;;;;;40.07;23.20;;;;;;;3.65;56.02;102220.94;5270756;28;20039;-74
2022/03/10 06:03:33;;;;;;;38.00;22.27;;;;;;;3.67;55.90;102234.72;5270423;28;20024;-76
2022/03/10 06:06:04;;;;;;;34.53;22.00;;;;;;;3.58;55.90;102215.78;5271375;28;20028;-75
2022/03/10 06:08:35;;;;;;;33.53;23.33;;;;;;;3.75;55.76;102228.59;5271089;28;20040;-75
2022/03/10 06:11:07;;;;;;;37.30;23.53;;;;;;;3.68;55.84;102231.28;5271236;28;20097;-76
2022/03/10 06:13:38;;;;;;;41.03;23.93;;;;;;;3.61;55.99;102235.66;5272027;28;20025;-78
2022/03/10 06:16:09;;;;;;;35.63;23.47;;;;;;;3.46;56.83;102223.66;5271122;28;20036;-79
2022/03/10 06:18:41;;;;;;;37.83;23.43;;;;;;;3.46;56.35;102221.94;5270681;28;20036;-78
2022/03/10 06:21:12;;;;;;;42.63;23.53;;;;;;;3.58;56.24;102233.94;5270926;28;20401;-76
2022/03/10 06:23:43;;;;;;;37.37;23.50;;;;;;;3.68;56.04;102231.28;5289131;28;20467;-74
2022/03/10 06:26:14;;;;;;;39.53;23.77;;;;;;;3.57;56.34;102237.41;5291729;28;20482;-74
2022/03/10 06:28:46;;;;;;;36.57;22.97;;;;;;;3.48;56.36;102229.69;5284236;28;20038;-74
2022/03/10 06:31:19;;;;;;;48.10;23.90;;;;;;;3.52;56.84;102239.16;5280589;28;20075;-74
2022/03/10 06:33:54;;;;;;;33.87;21.87;;;;;;;3.55;56.42;102236.53;5282776;28;20641;-73
2022/03/10 06:36:26;;;;;;;35.53;23.67;;;;;;;3.56;56.38;102240.84;5285824;28;20366;-73
2022/03/10 06:38:57;;;;;;;38.47;22.30;;;;;;;3.54;56.27;102229.66;5275197;28;20401;-75
2022/03/10 06:41:28;;;;;;;37.37;24.13;;;;;;;3.59;56.88;102240.84;5275899;28;20036;-71
2022/03/10 06:44:00;;;;;;;49.97;24.87;;;;;;;3.67;56.43;102239.91;5274678;28;20028;-72
2022/03/10 06:46:32;;;;;;;42.33;24.10;;;;;;;3.68;56.14;102239.03;5280426;28;20029;-72
2022/03/10 06:49:03;;;;;;;39.47;24.87;;;;;;;3.72;56.62;102244.19;5288700;28;20119;-81
2022/03/10 06:51:35;;;;;;;37.13;22.80;;;;;;;3.81;56.14;102240.66;5292648;28;20361;-79
2022/03/10 06:54:06;;;;;;;43.00;24.43;;;;;;;3.92;56.46;102250.94;5289539;28;20032;-73
2022/03/10 06:56:38;;;;;;;42.03;23.43;;;;;;;3.91;55.84;102248.38;5290213;28;20027;-73
2022/03/10 06:59:10;;;;;;;37.97;24.07;;;;;;;3.90;55.91;102250.09;5287250;28;20035;-75
2022/03/10 07:01:41;;;;;;;34.73;23.13;;;;;;;4.03;55.49;102255.16;5282180;28;20351;-75
2022/03/10 07:04:13;;;;;;;33.07;21.67;;;;;;;4.01;55.34;102244.81;5288415;28;20024;-75
2022/03/10 07:06:44;;;;;;;36.07;23.87;;;;;;;4.02;55.14;102246.53;5281149;28;20020;-77
2022/03/10 07:09:16;;;;;;;36.90;23.70;;;;;;;4.19;55.02;102256.72;5282945;28;20475;-77
2022/03/10 07:11:47;;;;;;;40.53;23.57;;;;;;;4.24;54.85;102264.47;5281297;28;20052;-77
2022/03/10 07:14:18;;;;;;;39.20;23.67;;;;;;;4.34;54.62;102266.09;5283121;28;20024;-77
2022/03/10 07:16:50;;;;;;;44.17;23.83;;;;;;;4.45;54.28;102268.56;5293205;28;20024;-77
2022/03/10 07:19:21;;;;;;;37.77;23.50;;;;;;;4.47;54.27;102261.63;5277719;28;20040;-75
2022/03/10 07:21:53;;;;;;;45.50;23.60;;;;;;;4.55;54.19;102261.53;5274906;28;20086;-77
2022/03/10 07:24:25;;;;;;;38.77;23.80;;;;;;;4.67;53.86;102260.53;5273588;28;20081;-75
2022/03/10 07:26:57;;;;;;;38.50;23.70;;;;;;;4.64;53.57;102254.53;5273505;28;20052;-74
2022/03/10 07:29:28;;;;;;;38.93;24.33;;;;;;;4.70;53.40;102251.84;5272927;28;20048;-73
2022/03/10 07:31:59;;;;;;;43.20;25.60;;;;;;;4.95;53.48;102269.72;5272797;28;20036;-76
2022/03/10 07:34:31;;;;;;;39.77;25.93;;;;;;;5.08;52.71;102263.47;5274359;28;20020;-75
2022/03/10 07:37:03;;;;;;;40.20;24.03;;;;;;;5.20;52.54;102265.03;5272764;28;20075;-77
2022/03/10 07:39:34;;;;;;;36.20;23.10;;;;;;;5.44;52.12;102267.31;5273645;28;20081;-74
2022/03/10 07:42:05;;;;;;;37.03;23.13;;;;;;;5.48;51.52;102262.94;5274663;28;20037;-75
2022/03/10 07:44:37;;;;;;;36.63;24.33;;;;;;;5.68;51.22;102265.19;5274357;28;20021;-74
2022/03/10 07:47:09;;;;;;;39.03;24.17;;;;;;;5.90;51.02;102259.66;5272658;28;20475;-73
2022/03/10 07:49:40;;;;;;;47.03;24.13;;;;;;;6.10;50.26;102266.25;5278082;28;20065;-72
2022/03/10 07:52:11;;;;;;;40.77;23.63;;;;;;;6.42;49.57;102257.00;5284812;28;20020;-72
2022/03/10 07:54:43;;;;;;;42.30;24.17;;;;;;;6.98;48.10;102265.44;5295270;28;20016;-72
2022/03/10 07:57:14;;;;;;;35.30;24.50;;;;;;;7.48;46.89;102253.88;5288101;28;20035;-73
2022/03/10 07:59:45;;;;;;;38.83;23.47;;;;;;;7.99;45.37;102257.81;5277353;28;20128;-75
2022/03/10 08:02:17;;;;;;;33.83;22.23;;;;;;;8.51;44.15;102260.81;5273417;28;20036;-79
2022/03/10 08:04:48;;;;;;;33.40;21.87;;;;;;;8.61;43.21;102259.69;5274340;28;20043;-81
2022/03/10 08:07:19;;;;;;;40.77;24.27;;;;;;;8.78;42.86;102238.28;5273463;28;20048;-80
2022/03/10 08:09:51;;;;;;;36.83;23.77;;;;;;;9.28;42.06;102265.56;5272130;28;20048;-79
2022/03/10 08:12:26;;;;;;;38.97;23.17;;;;;;;9.38;41.56;102271.34;5274380;28;20124;-74
2022/03/10 08:14:58;;;;;;;33.87;23.63;;;;;;;9.76;41.21;102262.28;5280840;28;20458;-74
2022/03/10 08:17:29;;;;;;;34.23;22.17;;;;;;;10.43;39.44;102272.22;5276367;28;20025;-81
2022/03/10 08:20:01;;;;;;;35.97;23.40;;;;;;;10.65;38.70;102278.41;5273127;28;20033;-73
2022/03/10 08:22:32;;;;;;;33.10;23.03;;;;;;;11.58;37.59;102267.84;5284974;28;20108;-74
2022/03/10 08:25:03;;;;;;;34.47;23.93;;;;;;;12.38;36.52;102277.63;5272919;28;20040;-74
2022/03/10 08:27:35;;;;;;;36.90;23.60;;;;;;;12.88;34.65;102280.66;5272782;28;20028;-74
2022/03/10 08:30:07;;;;;;;33.57;22.43;;;;;;;13.50;34.16;102276.00;5276878;28;20055;-73
2022/03/10 08:32:38;;;;;;;44.43;23.60;;;;;;;14.02;33.19;102277.81;5293385;28;20035;-73
2022/03/10 08:35:10;;;;;;;35.10;22.93;;;;;;;14.06;32.00;102277.66;5294250;28;20024;-73
2022/03/10 08:37:43;;;;;;;34.00;23.37;;;;;;;15.11;31.42;102279.09;5292895;28;20106;-73
2022/03/10 08:40:17;;;;;;;30.07;21.63;;;;;;;15.72;30.34;102275.66;5294014;28;20039;-73
2022/03/10 08:42:50;;;;;;;28.97;22.30;;;;;;;16.40;29.29;102269.03;5293862;28;20047;-73
2022/03/10 08:45:25;;;;;;;32.78;23.88;;;;;;;16.15;29.01;102273.19;5291789;28;20024;-74
2022/03/10 08:47:56;;;;;;;34.60;22.70;;;;;;;16.87;28.28;102266.97;5276383;28;20036;-74
2022/03/10 08:50:28;;;;;;;27.97;20.53;;;;;;;17.14;27.50;102271.44;5293601;28;20027;-74
2022/03/10 08:52:59;;;;;;;31.77;21.10;;;;;;;17.78;26.36;102269.06;5296427;28;20502;-74
2022/03/10 08:55:30;;;;;;;35.23;23.47;;;;;;;17.40;26.79;102263.56;5293929;28;20543;-74
2022/03/10 08:58:02;;;;;;;34.07;23.23;;;;;;;18.70;25.70;102272.47;5291998;28;20394;-73
2022/03/10 09:00:33;;;;;;;31.53;22.27;;;;;;;18.69;25.48;102266.34;5293776;28;20047;-74
2022/03/10 09:03:04;;;;;;;29.50;21.50;;;;;;;19.67;24.57;102260.16;5293172;28;20027;-74
2022/03/10 09:05:37;;;;;;;31.83;22.10;;;;;;;19.16;23.96;102262.16;5294289;28;20028;-74
2022/03/10 09:08:09;;;;;;;28.27;22.10;;;;;;;19.66;23.92;102264.59;5291978;28;20545;-74
2022/03/10 09:10:40;;;;;;;32.07;23.23;;;;;;;18.72;24.24;102262.63;5293684;28;20453;-73
2022/03/10 09:13:11;;;;;;;27.13;22.70;;;;;;;19.13;24.52;102262.38;5293129;28;20027;-74
2022/03/10 09:15:45;;;;;;;27.90;21.93;;;;;;;20.66;23.16;102253.38;5292516;28;20030;-73
2022/03/10 09:18:16;;;;;;;33.13;24.02;;;;;;;20.23;23.16;102255.84;5292627;28;20032;-73
2022/03/10 09:20:48;;;;;;;34.00;22.33;;;;;;;20.93;22.17;102254.75;5292812;28;20806;-74
2022/03/10 09:23:19;;;;;;;27.60;21.80;;;;;;;20.65;22.76;102246.34;5290896;28;20028;-74
2022/03/10 09:25:50;;;;;;;28.07;21.60;;;;;;;21.54;22.53;102251.63;5293167;28;20023;-74
2022/03/10 09:28:22;;;;;;;26.40;21.37;;;;;;;22.39;21.00;102247.94;5293248;28;20024;-74
2022/03/10 09:30:53;;;;;;;28.40;22.80;;;;;;;21.52;20.94;102251.75;5292969;28;20073;-74
2022/03/10 09:33:24;;;;;;;28.20;21.73;;;;;;;22.20;20.74;102239.72;5293279;28;20028;-74
2022/03/10 09:35:56;;;;;;;32.00;21.48;;;;;;;23.37;20.93;102239.16;5291452;28;20032;-74
2022/03/10 09:38:27;;;;;;;28.38;22.48;;;;;;;23.88;19.44;102230.03;5292087;28;20032;-74
2022/03/10 09:40:58;;;;;;;38.38;22.33;;;;;;;24.32;18.61;102232.09;5293055;28;20028;-74
2022/03/10 09:43:32;;;;;;;28.58;22.13;;;;;;;22.75;20.09;102232.28;5292778;28;20026;-74
2022/03/10 09:46:04;;;;;;;27.35;21.35;;;;;;;24.14;20.14;102232.06;5292913;28;20498;-74
2022/03/10 09:48:37;;;;;;;32.00;21.40;;;;;;;23.47;19.80;102224.97;5292416;28;20024;-73
2022/03/10 09:51:08;;;;;;;26.92;21.30;;;;;;;23.92;20.05;102223.41;5291076;28;20023;-74
2022/03/10 09:53:40;;;;;;;32.53;21.80;;;;;;;24.67;18.53;102226.94;5292065;28;20086;-74
2022/03/10 09:56:11;;;;;;;26.58;21.70;;;;;;;25.29;19.05;102225.28;5292655;28;20690;-74
2022/03/10 09:58:42;;;;;;;26.90;21.23;;;;;;;26.25;17.38;102223.63;5292130;28;20028;-74
2022/03/10 10:01:14;;;;;;;29.95;21.27;;;;;;;25.81;17.46;102228.16;5292795;28;20035;-74
2022/03/10 10:03:45;;;;;;;25.75;20.95;;;;;;;25.21;18.51;102215.38;5292192;28;20024;-74
2022/03/10 10:06:16;;;;;;;25.55;19.83;;;;;;;26.01;17.93;102215.31;5291523;28;20288;-74
2022/03/10 10:08:57;;;;;;;29.67;23.00;;;;;;;25.82;19.30;102201.16;5292751;28;20032;-74
2022/03/10 10:11:33;;;;;;;27.67;23.58;;;;;;;25.65;18.92;102202.06;5292670;28;20064;-74
2022/03/10 10:14:04;;;;;;;27.48;22.65;;;;;;;24.53;19.24;102201.53;5292566;28;20024;-74
2022/03/10 10:16:48;;;;;;;27.63;23.00;;;;;;;24.57;19.20;102205.59;5291110;28;20054;-74
2022/03/10 10:19:20;;;;;;;24.95;22.25;;;;;;;24.78;18.89;102209.81;5291794;28;20402;-73
2022/03/10 10:22:08;;;;;;;32.05;22.95;;;;;;;24.31;19.50;102208.16;5291750;28;20024;-74
2022/03/10 10:24:48;;;;;;;28.65;21.67;;;;;;;25.64;18.70;102213.78;5292064;28;20720;-74
2022/03/10 10:27:22;;;;;;;27.13;22.20;;;;;;;23.52;20.03;102190.63;5292427;28;20461;-74
2022/03/10 10:29:55;;;;;;;27.92;22.20;;;;;;;25.04;19.25;102197.47;5291788;28;20028;-74
2022/03/10 10:32:43;;;;;;;33.40;23.17;;;;;;;22.89;20.47;102195.47;5292818;28;20082;-74
2022/03/10 10:35:21;;;;;;;34.35;22.60;;;;;;;24.34;20.04;102195.31;5271175;28;20040;-74
2022/03/10 10:37:54;;;;;;;29.70;22.15;;;;;;;23.52;20.62;102193.28;5273183;28;20039;-75
2022/03/10 10:40:27;;;;;;;27.55;22.50;;;;;;;23.35;19.90;102189.50;5286425;28;20664;-74
2022/03/10 10:43:02;;;;;;;27.60;21.07;;;;;;;22.05;22.20;102185.06;5291450;28;20028;-76
2022/03/10 10:45:36;;;;;;;31.90;21.67;;;;;;;22.36;22.53;102185.00;5292388;28;20031;-75
2022/03/10 10:48:09;;;;;;;29.20;21.63;;;;;;;21.46;23.04;102182.97;5290443;28;20024;-74
2022/03/10 10:50:46;;;;;;;30.08;22.17;;;;;;;20.35;25.05;102181.38;5288027;28;20043;-75
2022/03/10 10:53:31;;;;;;;28.75;22.17;;;;;;;20.59;24.74;102178.53;5280914;28;20029;-79
2022/03/10 10:56:04;;;;;;;24.67;20.55;;;;;;;20.21;25.20;102161.19;5282380;28;20062;-79
2022/03/10 10:58:35;;;;;;;28.92;20.70;;;;;;;19.46;26.46;102173.16;5279974;28;20020;-73
2022/03/10 11:01:06;;;;;;;28.50;21.27;;;;;;;19.65;25.85;102166.41;5288485;28;20109;-75
2022/03/10 11:03:38;;;;;;;24.60;19.40;;;;;;;20.39;25.10;102169.50;5289911;28;20581;-76
2022/03/10 11:06:11;;;;;;;30.47;21.13;;;;;;;19.61;26.05;102164.94;5280379;28;20066;-80
2022/03/10 11:08:43;;;;;;;28.48;21.30;;;;;;;19.65;26.12;102155.78;5275119;28;20024;-81
2022/03/10 11:11:15;;;;;;;23.40;20.17;;;;;;;19.61;26.11;102159.63;5267824;28;20779;-73
2022/03/10 11:13:48;;;;;;;30.03;20.17;;;;;;;19.52;26.02;102167.34;5277739;28;20387;-72
2022/03/10 11:16:20;;;;;;;25.83;20.30;;;;;;;19.05;26.36;102159.38;5285237;28;20026;-73
2022/03/10 11:18:52;;;;;;;35.90;20.43;;;;;;;18.93;27.71;102154.03;5287623;28;20020;-76
2022/03/10 11:21:45;;;;;;;25.90;20.03;;;;;;;18.98;27.36;102157.19;5289742;28;20028;-80
2022/03/10 11:24:33;;;;;;;24.60;18.33;;;;;;;19.08;27.08;102148.50;5278024;28;20037;-79
2022/03/10 11:27:14;;;;;;;24.60;18.13;;;;;;;19.64;26.77;102164.69;5281195;28;20020;-77
2022/03/10 11:29:49;;;;;;;25.50;19.57;;;;;;;19.55;27.43;102145.84;5279762;28;20069;-77
2022/03/10 11:32:28;;;;;;;23.03;17.40;;;;;;;19.51;27.17;102148.88;5281867;28;20016;-75
2022/03/10 11:35:01;;;;;;;27.53;18.50;;;;;;;19.90;26.42;102154.66;5291755;28;20089;-72
2022/03/10 11:37:45;;;;;;;27.20;18.73;;;;;;;20.07;27.00;102144.53;5291404;28;20070;-76
2022/03/10 11:40:39;;;;;;;26.13;16.97;;;;;;;19.88;27.44;102139.81;5290670;28;20446;-70
2022/03/10 11:43:16;;;;;;;28.27;18.87;;;;;;;19.36;27.49;102140.28;5288599;28;20074;-75